createdAt,value
2023-12-11T00:00:28.511Z,45.17
2023-12-11T00:01:00.573Z,47.30
2023-12-11T00:01:36.616Z,52.17
2023-12-11T00:02:08.762Z,46.87
2023-12-11T00:02:40.733Z,54.40
2023-12-11T00:03:12.781Z,55.37
2023-12-11T00:03:44.777Z,43.37
2023-12-11T00:04:16.796Z,43.43
2023-12-11T00:04:48.732Z,40.73
2023-12-11T00:05:20.759Z,41.27
2023-12-11T00:05:52.853Z,39.23
2023-12-11T00:06:24.788Z,38.80
2023-12-11T00:06:56.723Z,38.30
2023-12-11T00:07:28.890Z,39.87
2023-12-11T00:08:01.237Z,41.47
2023-12-11T00:08:34.438Z,39.20
2023-12-11T00:09:06.984Z,40.73
2023-12-11T00:09:38.934Z,42.80
2023-12-11T00:10:11.275Z,41.67
2023-12-11T00:10:43.268Z,43.87
2023-12-11T00:11:15.236Z,37.67
2023-12-11T00:11:47.203Z,42.20
2023-12-11T00:12:19.183Z,47.77
2023-12-11T00:12:51.172Z,47.60
2023-12-11T00:13:23.107Z,50.67
2023-12-11T00:13:55.033Z,48.43
2023-12-11T00:14:27.326Z,47.33
2023-12-11T00:15:01.067Z,46.17
2023-12-11T00:15:33.021Z,43.67
2023-12-11T00:16:05.416Z,38.33
2023-12-11T00:16:37.432Z,38.17
2023-12-11T00:17:10.508Z,38.30
2023-12-11T00:17:42.517Z,37.63
2023-12-11T00:18:14.620Z,40.73
2023-12-11T00:18:47.218Z,39.50
2023-12-11T00:19:19.342Z,38.43
2023-12-11T00:19:51.477Z,39.23
2023-12-11T00:20:23.486Z,42.03
2023-12-11T00:20:55.446Z,39.57
2023-12-11T00:21:27.457Z,40.40
2023-12-11T00:21:59.524Z,44.93
2023-12-11T00:22:31.479Z,47.53
2023-12-11T00:23:03.696Z,46.13
2023-12-11T00:23:35.708Z,43.10
2023-12-11T00:24:07.827Z,39.73
2023-12-11T00:24:39.899Z,37.43
2023-12-11T00:25:12.029Z,37.97
2023-12-11T00:25:48.126Z,42.03
2023-12-11T00:26:20.184Z,39.93
2023-12-11T00:26:52.149Z,37.37
2023-12-11T00:27:24.214Z,36.47
2023-12-11T00:27:56.638Z,36.93
2023-12-11T00:28:28.884Z,37.70
2023-12-11T00:29:00.846Z,42.33
2023-12-11T00:29:32.784Z,42.83
2023-12-11T00:30:05.475Z,43.67
2023-12-11T00:30:37.533Z,42.37
2023-12-11T00:31:13.074Z,37.83
2023-12-11T00:31:45.618Z,36.47
2023-12-11T00:32:17.683Z,35.20
2023-12-11T00:32:49.665Z,34.70
2023-12-11T00:33:21.722Z,33.03
2023-12-11T00:33:53.865Z,35.60
2023-12-11T00:34:25.943Z,36.13
2023-12-11T00:34:58.012Z,34.27
2023-12-11T00:35:30.309Z,34.50
2023-12-11T00:36:02.634Z,35.23
2023-12-11T00:36:34.571Z,33.47
2023-12-11T00:37:06.599Z,34.87
2023-12-11T00:37:38.546Z,33.93
2023-12-11T00:38:10.638Z,34.97
2023-12-11T00:38:42.568Z,33.17
2023-12-11T00:39:17.241Z,35.47
2023-12-11T00:39:49.205Z,35.50
2023-12-11T00:40:21.140Z,32.77
2023-12-11T00:40:54.271Z,33.50
2023-12-11T00:41:26.173Z,32.60
2023-12-11T00:41:58.343Z,30.60
2023-12-11T00:42:30.371Z,31.17
2023-12-11T00:43:02.478Z,30.50
2023-12-11T00:43:44.592Z,30.43
2023-12-11T00:44:18.377Z,32.17
2023-12-11T00:44:50.507Z,33.80
2023-12-11T00:45:22.523Z,34.43
2023-12-11T00:45:54.552Z,32.27
2023-12-11T00:46:26.961Z,31.60
2023-12-11T00:46:59.016Z,31.60
2023-12-11T00:47:31.245Z,31.60
2023-12-11T00:48:03.710Z,32.30
2023-12-11T00:48:35.784Z,31.33
2023-12-11T00:49:07.974Z,30.53
2023-12-11T00:49:40.041Z,31.63
2023-12-11T00:50:12.119Z,33.37
2023-12-11T00:50:44.048Z,31.93
2023-12-11T00:51:21.288Z,32.10
2023-12-11T00:51:55.850Z,31.77
2023-12-11T00:52:27.843Z,34.10
2023-12-11T00:52:59.796Z,32.97
2023-12-11T00:53:31.737Z,32.10
2023-12-11T00:54:03.774Z,34.43
2023-12-11T00:54:35.767Z,35.93
2023-12-11T00:55:08.377Z,37.17
2023-12-11T00:55:40.379Z,34.43
2023-12-11T00:56:12.676Z,35.47
2023-12-11T00:56:44.618Z,37.90
2023-12-11T00:57:16.641Z,39.00
2023-12-11T00:57:48.593Z,36.40
2023-12-11T00:58:20.527Z,36.00
2023-12-11T00:58:52.474Z,34.97
2023-12-11T00:59:24.433Z,35.80
2023-12-11T00:59:56.477Z,36.20
2023-12-11T01:00:28.880Z,36.37
2023-12-11T01:01:00.969Z,35.20
2023-12-11T01:01:32.965Z,36.67
2023-12-11T01:02:04.998Z,37.43
2023-12-11T01:02:37.014Z,38.50
2023-12-11T01:03:09.032Z,40.40
2023-12-11T01:03:41.159Z,42.17
2023-12-11T01:04:13.998Z,44.97
2023-12-11T01:04:46.207Z,45.07
2023-12-11T01:05:18.217Z,44.77
2023-12-11T01:05:50.157Z,44.13
2023-12-11T01:06:22.297Z,44.27
2023-12-11T01:06:54.218Z,44.60
2023-12-11T01:07:26.153Z,44.73
2023-12-11T01:07:58.358Z,45.73
2023-12-11T01:08:31.473Z,46.33
2023-12-11T01:09:03.542Z,45.07
2023-12-11T01:09:35.573Z,47.93
2023-12-11T01:10:08.084Z,46.53
2023-12-11T01:10:40.093Z,46.50
2023-12-11T01:11:12.100Z,44.80
2023-12-11T01:11:44.059Z,39.63
2023-12-11T01:12:16.352Z,41.23
2023-12-11T01:12:48.311Z,44.13
2023-12-11T01:13:20.300Z,43.20
2023-12-11T01:13:52.309Z,32.27
2023-12-11T01:14:24.315Z,29.80
2023-12-11T01:14:56.309Z,33.97
2023-12-11T01:15:28.304Z,33.67
2023-12-11T01:16:00.592Z,32.47
2023-12-11T01:16:32.611Z,34.10
2023-12-11T01:17:36.298Z,31.27
2023-12-11T01:17:57.420Z,33.03
2023-12-11T01:18:30.036Z,31.03
2023-12-11T01:19:02.194Z,27.10
2023-12-11T01:19:34.426Z,25.83
2023-12-11T01:20:06.988Z,26.57
2023-12-11T01:20:40.031Z,30.10
2023-12-11T01:21:12.063Z,40.10
2023-12-11T01:21:46.131Z,43.27
2023-12-11T01:22:18.110Z,37.20
2023-12-11T01:22:50.060Z,27.37
2023-12-11T01:23:22.031Z,25.60
2023-12-11T01:23:56.307Z,26.90
2023-12-11T01:24:29.617Z,26.33
2023-12-11T01:25:03.846Z,28.03
2023-12-11T01:25:36.162Z,25.50
2023-12-11T01:26:08.159Z,30.67
2023-12-11T01:26:40.262Z,32.13
2023-12-11T01:27:12.203Z,31.53
2023-12-11T01:27:44.202Z,30.93
2023-12-11T01:28:16.206Z,36.17
2023-12-11T01:28:48.249Z,32.30
2023-12-11T01:29:20.189Z,34.80
2023-12-11T01:29:52.121Z,34.70
2023-12-11T01:30:24.034Z,30.40
2023-12-11T01:30:56.038Z,30.63
2023-12-11T01:31:28.038Z,30.50
2023-12-11T01:32:00.192Z,32.57
2023-12-11T01:32:32.132Z,33.57
2023-12-11T01:33:04.836Z,31.03
2023-12-11T01:33:36.884Z,32.40
2023-12-11T01:34:09.003Z,29.87
2023-12-11T01:34:41.186Z,30.10
2023-12-11T01:35:13.181Z,28.10
2023-12-11T01:35:45.288Z,27.93
2023-12-11T01:36:17.185Z,28.27
2023-12-11T01:36:49.130Z,28.40
2023-12-11T01:37:21.146Z,26.73
2023-12-11T01:37:53.500Z,26.27
2023-12-11T01:38:25.421Z,26.07
2023-12-11T01:38:57.518Z,26.60
2023-12-11T01:39:29.566Z,26.17
2023-12-11T01:40:01.575Z,25.00
2023-12-11T01:40:33.606Z,24.33
2023-12-11T01:41:05.681Z,25.30
2023-12-11T01:41:38.084Z,25.47
2023-12-11T01:42:10.028Z,25.90
2023-12-11T01:42:42.031Z,27.73
2023-12-11T01:43:21.847Z,29.90
2023-12-11T01:43:57.876Z,29.20
2023-12-11T01:44:31.027Z,28.93
2023-12-11T01:45:03.218Z,26.67
2023-12-11T01:45:35.200Z,26.80
2023-12-11T01:46:15.136Z,27.63
2023-12-11T01:46:47.867Z,28.63
2023-12-11T01:47:19.932Z,29.07
2023-12-11T01:47:52.663Z,28.47
2023-12-11T01:48:24.994Z,29.53
2023-12-11T01:48:57.350Z,29.10
2023-12-11T01:49:29.810Z,28.30
2023-12-11T01:50:02.002Z,27.00
2023-12-11T01:50:34.258Z,25.83
2023-12-11T01:51:09.527Z,25.80
2023-12-11T01:51:43.079Z,26.53
2023-12-11T01:52:15.727Z,25.73
2023-12-11T01:52:47.705Z,23.67
2023-12-11T01:53:19.966Z,23.97
2023-12-11T01:53:53.726Z,24.57
2023-12-11T01:54:26.697Z,25.10
2023-12-11T01:54:58.755Z,24.70
2023-12-11T01:55:34.224Z,23.73
2023-12-11T01:56:06.487Z,24.33
2023-12-11T01:56:39.069Z,24.80
2023-12-11T01:57:11.132Z,23.17
2023-12-11T01:57:43.906Z,22.47
2023-12-11T01:58:17.285Z,23.20
2023-12-11T01:58:50.029Z,22.70
2023-12-11T01:59:22.100Z,23.33
2023-12-11T01:59:54.160Z,24.30
2023-12-11T02:00:26.285Z,24.30
2023-12-11T02:00:58.840Z,22.50
2023-12-11T02:01:31.631Z,22.30
2023-12-11T02:02:04.644Z,24.40
2023-12-11T02:02:36.638Z,24.10
2023-12-11T02:03:10.667Z,22.53
2023-12-11T02:03:42.818Z,20.93
2023-12-11T02:04:14.969Z,21.23
2023-12-11T02:04:47.691Z,19.37
2023-12-11T02:05:19.818Z,20.93
2023-12-11T02:05:52.504Z,21.60
2023-12-11T02:06:24.464Z,21.10
2023-12-11T02:06:58.009Z,20.20
2023-12-11T02:07:30.284Z,20.33
2023-12-11T02:08:02.747Z,19.83
2023-12-11T02:08:35.196Z,18.67
2023-12-11T02:09:07.246Z,19.40
2023-12-11T02:09:39.443Z,18.13
2023-12-11T02:10:11.629Z,17.67
2023-12-11T02:10:43.865Z,17.93
2023-12-11T02:11:16.188Z,17.60
2023-12-11T02:11:48.123Z,16.87
2023-12-11T02:12:20.212Z,17.70
2023-12-11T02:12:52.367Z,17.37
2023-12-11T02:13:24.666Z,16.50
2023-12-11T02:13:56.604Z,16.97
2023-12-11T02:14:28.619Z,17.30
2023-12-11T02:15:00.503Z,17.37
2023-12-11T02:15:43.036Z,17.63
2023-12-11T02:16:18.558Z,17.23
2023-12-11T02:16:51.235Z,17.03
2023-12-11T02:17:23.178Z,17.43
2023-12-11T02:17:55.236Z,17.90
2023-12-11T02:18:27.383Z,16.93
2023-12-11T02:18:59.585Z,16.67
2023-12-11T02:19:31.712Z,17.53
2023-12-11T02:20:05.864Z,17.67
2023-12-11T02:20:39.786Z,17.80
2023-12-11T02:21:14.378Z,17.77
2023-12-11T02:21:46.425Z,17.33
2023-12-11T02:22:18.953Z,16.33
2023-12-11T02:22:51.842Z,16.63
2023-12-11T02:23:38.531Z,16.03
2023-12-11T02:24:22.206Z,14.13
2023-12-11T02:25:04.062Z,16.63
2023-12-11T02:25:37.516Z,16.73
2023-12-11T02:26:20.000Z,17.93
2023-12-11T02:26:51.978Z,18.13
2023-12-11T02:27:25.039Z,19.47
2023-12-11T02:27:56.958Z,22.13
2023-12-11T02:28:29.072Z,20.23
2023-12-11T02:29:01.114Z,24.43
2023-12-11T02:29:33.130Z,21.23
2023-12-11T02:30:05.592Z,13.47
2023-12-11T02:30:40.739Z,20.33
2023-12-11T02:31:13.563Z,24.93
2023-12-11T02:31:45.516Z,21.50
2023-12-11T02:32:17.966Z,20.50
2023-12-11T02:32:53.236Z,26.10
2023-12-11T02:33:25.216Z,20.70
2023-12-11T02:33:57.312Z,18.33
2023-12-11T02:34:29.503Z,18.83
2023-12-11T02:35:01.539Z,18.57
2023-12-11T02:35:33.808Z,18.43
2023-12-11T02:36:06.321Z,23.63
2023-12-11T02:36:38.345Z,23.53
2023-12-11T02:37:10.384Z,19.10
2023-12-11T02:37:42.333Z,18.90
2023-12-11T02:38:14.229Z,18.70
2023-12-11T02:38:48.826Z,17.77
2023-12-11T02:39:20.755Z,20.07
2023-12-11T02:39:52.710Z,20.07
2023-12-11T02:40:24.733Z,21.40
2023-12-11T02:40:56.829Z,21.20
2023-12-11T02:41:28.708Z,20.57
2023-12-11T02:42:00.651Z,17.60
2023-12-11T02:42:32.677Z,17.23
2023-12-11T02:43:05.082Z,18.17
2023-12-11T02:43:37.012Z,20.00
2023-12-11T02:44:08.912Z,19.00
2023-12-11T02:44:41.057Z,18.80
2023-12-11T02:45:13.000Z,18.80
2023-12-11T02:45:45.084Z,17.13
2023-12-11T02:46:17.217Z,19.17
2023-12-11T02:46:49.147Z,15.77
2023-12-11T02:47:21.045Z,15.90
2023-12-11T02:47:53.052Z,19.63
2023-12-11T02:48:25.129Z,18.23
2023-12-11T02:48:57.220Z,19.63
2023-12-11T02:49:29.355Z,20.17
2023-12-11T02:50:01.373Z,17.13
2023-12-11T02:50:33.713Z,18.50
2023-12-11T02:51:06.167Z,17.67
2023-12-11T02:51:38.200Z,13.00
2023-12-11T02:52:10.283Z,12.47
2023-12-11T02:52:42.251Z,12.23
2023-12-11T02:53:14.240Z,13.63
2023-12-11T02:53:46.976Z,11.67
2023-12-11T02:54:18.945Z,12.60
2023-12-11T02:54:50.953Z,12.37
2023-12-11T02:55:22.908Z,14.63
2023-12-11T02:55:54.883Z,15.80
2023-12-11T02:56:26.801Z,13.37
2023-12-11T02:56:58.762Z,12.30
2023-12-11T02:57:31.110Z,12.30
2023-12-11T02:58:04.417Z,13.27
2023-12-11T02:58:36.389Z,14.90
2023-12-11T02:59:08.286Z,14.13
2023-12-11T02:59:40.177Z,15.00
2023-12-11T03:00:12.125Z,14.33
2023-12-11T03:00:44.145Z,11.83
2023-12-11T03:01:16.983Z,11.40
2023-12-11T03:01:49.147Z,11.23
2023-12-11T03:02:21.095Z,11.13
2023-12-11T03:02:53.034Z,10.27
2023-12-11T03:03:25.040Z,10.73
2023-12-11T03:03:57.191Z,9.60
2023-12-11T03:04:29.390Z,9.67
2023-12-11T03:05:01.397Z,9.60
2023-12-11T03:05:33.333Z,10.00
2023-12-11T03:06:06.745Z,10.07
2023-12-11T03:06:38.753Z,10.33
2023-12-11T03:07:10.715Z,9.97
2023-12-11T03:07:42.724Z,9.90
2023-12-11T03:08:14.630Z,9.77
2023-12-11T03:08:46.660Z,11.23
2023-12-11T03:09:18.610Z,14.67
2023-12-11T03:09:50.713Z,16.77
2023-12-11T03:10:23.000Z,16.63
2023-12-11T03:10:54.977Z,15.73
2023-12-11T03:11:26.882Z,13.73
2023-12-11T03:11:58.920Z,10.83
2023-12-11T03:12:30.929Z,10.50
2023-12-11T03:13:02.910Z,10.90
2023-12-11T03:13:34.890Z,10.93
2023-12-11T03:14:06.814Z,10.53
2023-12-11T03:14:38.717Z,9.63
2023-12-11T03:15:11.138Z,9.37
2023-12-11T03:15:43.099Z,8.33
2023-12-11T03:16:17.315Z,9.40
2023-12-11T03:16:49.552Z,9.43
2023-12-11T03:17:21.660Z,8.77
2023-12-11T03:17:53.678Z,9.27
2023-12-11T03:18:25.772Z,9.77
2023-12-11T03:18:57.856Z,8.67
2023-12-11T03:19:29.954Z,9.07
2023-12-11T03:20:02.348Z,10.30
2023-12-11T03:20:34.289Z,9.80
2023-12-11T03:21:06.328Z,9.77
2023-12-11T03:21:38.248Z,9.73
2023-12-11T03:22:10.341Z,9.83
2023-12-11T03:22:42.433Z,9.77
2023-12-11T03:23:14.412Z,10.43
2023-12-11T03:23:46.507Z,9.67
2023-12-11T03:24:18.417Z,9.83
2023-12-11T03:24:50.501Z,10.43
2023-12-11T03:25:23.334Z,10.60
2023-12-11T03:25:55.373Z,11.23
2023-12-11T03:26:27.331Z,11.07
2023-12-11T03:26:59.334Z,11.20
2023-12-11T03:27:31.553Z,11.30
2023-12-11T03:28:03.836Z,9.03
2023-12-11T03:28:37.056Z,9.77
2023-12-11T03:29:08.991Z,11.07
2023-12-11T03:29:43.151Z,10.47
2023-12-11T03:30:15.156Z,10.53
2023-12-11T03:30:47.194Z,10.30
2023-12-11T03:31:19.247Z,10.30
2023-12-11T03:31:51.191Z,11.90
2023-12-11T03:32:23.610Z,16.80
2023-12-11T03:32:55.839Z,44.63
2023-12-11T03:33:27.822Z,17.47
2023-12-11T03:33:59.853Z,14.63
2023-12-11T03:34:32.024Z,11.53
2023-12-11T03:35:04.878Z,34.93
2023-12-11T03:35:36.811Z,61.83
2023-12-11T03:36:09.149Z,32.80
2023-12-11T03:36:41.185Z,33.20
2023-12-11T03:37:13.821Z,26.03
2023-12-11T03:37:45.719Z,20.23
2023-12-11T03:38:17.724Z,17.40
2023-12-11T03:38:49.635Z,15.63
2023-12-11T03:39:21.516Z,13.27
2023-12-11T03:39:53.480Z,11.90
2023-12-11T03:40:25.430Z,13.27
2023-12-11T03:40:57.431Z,12.63
2023-12-11T03:41:29.392Z,12.77
2023-12-11T03:42:01.309Z,12.67
2023-12-11T03:42:33.294Z,12.37
2023-12-11T03:43:05.496Z,11.40
2023-12-11T03:43:37.500Z,11.73
2023-12-11T03:44:09.448Z,11.77
2023-12-11T03:44:41.442Z,12.70
2023-12-11T03:45:13.435Z,17.47
2023-12-11T03:45:45.430Z,12.50
2023-12-11T03:46:17.414Z,10.93
2023-12-11T03:46:49.535Z,11.27
2023-12-11T03:47:22.767Z,10.37
2023-12-11T03:47:54.899Z,10.40
2023-12-11T03:48:27.086Z,10.27
2023-12-11T03:48:59.338Z,11.60
2023-12-11T03:49:31.577Z,11.17
2023-12-11T03:50:03.804Z,10.77
2023-12-11T03:50:35.723Z,11.20
2023-12-11T03:51:07.741Z,11.20
2023-12-11T03:51:39.728Z,11.43
2023-12-11T03:52:11.709Z,13.87
2023-12-11T03:52:43.666Z,13.77
2023-12-11T03:53:15.582Z,17.40
2023-12-11T03:53:47.628Z,15.80
2023-12-11T03:54:19.608Z,11.93
2023-12-11T03:54:51.539Z,12.63
2023-12-11T03:55:23.529Z,12.07
2023-12-11T03:55:55.508Z,12.10
2023-12-11T03:56:28.143Z,12.70
2023-12-11T03:57:00.087Z,10.73
2023-12-11T03:57:32.215Z,15.53
2023-12-11T03:58:04.550Z,14.43
2023-12-11T03:58:36.533Z,14.97
2023-12-11T03:59:08.777Z,13.90
2023-12-11T03:59:41.957Z,11.93
2023-12-11T04:00:14.437Z,12.23
2023-12-11T04:00:46.615Z,12.33
2023-12-11T04:01:18.878Z,11.47
2023-12-11T04:01:50.981Z,11.37
2023-12-11T04:02:23.237Z,11.10
2023-12-11T04:02:55.296Z,10.97
2023-12-11T04:03:27.400Z,10.80
2023-12-11T04:04:01.350Z,10.93
2023-12-11T04:04:33.395Z,9.77
2023-12-11T04:05:05.712Z,9.73
2023-12-11T04:05:37.704Z,10.73
2023-12-11T04:06:09.670Z,10.30
2023-12-11T04:06:41.727Z,10.00
2023-12-11T04:07:13.749Z,10.00
2023-12-11T04:07:45.764Z,10.33
2023-12-11T04:08:17.910Z,13.27
2023-12-11T04:08:49.856Z,13.80
2023-12-11T04:09:21.798Z,14.20
2023-12-11T04:09:53.771Z,15.47
2023-12-11T04:10:25.752Z,19.90
2023-12-11T04:10:57.728Z,25.63
2023-12-11T04:11:29.654Z,29.03
2023-12-11T04:12:01.655Z,28.53
2023-12-11T04:12:33.603Z,28.27
2023-12-11T04:13:05.590Z,28.57
2023-12-11T04:13:37.555Z,28.27
2023-12-11T04:14:09.536Z,24.73
2023-12-11T04:14:41.453Z,24.77
2023-12-11T04:15:13.385Z,24.73
2023-12-11T04:15:45.797Z,25.33
2023-12-11T04:16:17.792Z,24.47
2023-12-11T04:16:49.780Z,22.80
2023-12-11T04:17:21.972Z,22.17
2023-12-11T04:17:53.968Z,22.00
2023-12-11T04:18:26.028Z,22.00
2023-12-11T04:19:00.533Z,21.13
2023-12-11T04:19:33.138Z,22.53
2023-12-11T04:20:06.545Z,23.47
2023-12-11T04:20:38.570Z,23.83
2023-12-11T04:21:10.761Z,22.73
2023-12-11T04:21:42.867Z,22.30
2023-12-11T04:22:14.895Z,21.20
2023-12-11T04:22:46.846Z,22.17
2023-12-11T04:23:18.767Z,22.57
2023-12-11T04:23:50.651Z,22.50
2023-12-11T04:24:22.639Z,22.43
2023-12-11T04:24:54.611Z,22.10
2023-12-11T04:25:26.650Z,22.03
2023-12-11T04:26:00.373Z,22.30
2023-12-11T04:26:32.382Z,21.10
2023-12-11T04:27:04.693Z,22.00
2023-12-11T04:27:37.060Z,21.80
2023-12-11T04:28:09.049Z,21.60
2023-12-11T04:28:40.988Z,20.60
2023-12-11T04:29:12.896Z,20.00
2023-12-11T04:29:44.801Z,18.53
2023-12-11T04:30:16.858Z,18.90
2023-12-11T04:30:49.240Z,18.77
2023-12-11T04:31:22.485Z,18.67
2023-12-11T04:31:54.370Z,17.90
2023-12-11T04:32:26.400Z,16.67
2023-12-11T04:32:58.461Z,18.63
2023-12-11T04:33:31.129Z,18.30
2023-12-11T04:34:03.460Z,18.30
2023-12-11T04:34:35.544Z,18.17
2023-12-11T04:35:07.688Z,16.57
2023-12-11T04:35:39.624Z,15.80
2023-12-11T04:36:11.623Z,15.53
2023-12-11T04:36:44.931Z,16.17
2023-12-11T04:37:17.050Z,16.53
2023-12-11T04:37:48.965Z,16.67
2023-12-11T04:38:20.860Z,16.43
2023-12-11T04:38:53.345Z,15.93
2023-12-11T04:39:25.288Z,15.97
2023-12-11T04:39:57.376Z,15.60
2023-12-11T04:40:29.407Z,15.60
2023-12-11T04:41:01.563Z,15.83
2023-12-11T04:41:33.535Z,15.67
2023-12-11T04:42:05.805Z,15.83
2023-12-11T04:42:37.736Z,17.33
2023-12-11T04:43:09.738Z,16.43
2023-12-11T04:43:41.688Z,15.90
2023-12-11T04:44:13.642Z,14.60
2023-12-11T04:44:45.541Z,15.83
2023-12-11T04:45:17.452Z,16.80
2023-12-11T04:45:50.510Z,16.47
2023-12-11T04:46:22.536Z,16.80
2023-12-11T04:46:54.460Z,16.77
2023-12-11T04:47:26.413Z,17.10
2023-12-11T04:47:58.540Z,17.83
2023-12-11T04:48:30.570Z,17.27
2023-12-11T04:49:02.707Z,16.07
2023-12-11T04:49:34.892Z,17.10
2023-12-11T04:50:07.157Z,16.40
2023-12-11T04:50:39.102Z,15.40
2023-12-11T04:51:11.126Z,16.40
2023-12-11T04:51:45.534Z,16.70
2023-12-11T04:52:18.772Z,15.27
2023-12-11T04:52:50.760Z,15.47
2023-12-11T04:53:22.695Z,15.57
2023-12-11T04:53:54.863Z,14.57
2023-12-11T04:54:26.953Z,15.07
2023-12-11T04:54:59.002Z,15.13
2023-12-11T04:55:31.043Z,14.13
2023-12-11T04:56:09.378Z,13.23
2023-12-11T04:56:41.635Z,15.50
2023-12-11T04:57:13.753Z,16.13
2023-12-11T04:57:45.681Z,15.17
2023-12-11T04:58:17.694Z,15.33
2023-12-11T04:58:49.647Z,14.10
2023-12-11T04:59:21.544Z,13.80
2023-12-11T04:59:53.466Z,13.30
2023-12-11T05:00:25.390Z,13.77
2023-12-11T05:00:57.472Z,15.33
2023-12-11T05:01:29.510Z,15.87
2023-12-11T05:02:02.039Z,14.57
2023-12-11T05:02:34.169Z,12.40
2023-12-11T05:03:06.144Z,12.00
2023-12-11T05:03:38.301Z,13.90
2023-12-11T05:04:10.604Z,12.87
2023-12-11T05:04:42.619Z,11.33
2023-12-11T05:05:16.049Z,11.00
2023-12-11T05:05:47.970Z,11.40
2023-12-11T05:06:20.269Z,10.50
2023-12-11T05:06:52.286Z,10.83
2023-12-11T05:07:24.312Z,11.10
2023-12-11T05:07:56.235Z,11.30
2023-12-11T05:08:30.357Z,10.77
2023-12-11T05:09:02.755Z,10.53
2023-12-11T05:09:34.716Z,10.60
2023-12-11T05:10:07.144Z,10.23
2023-12-11T05:10:39.146Z,11.07
2023-12-11T05:11:11.180Z,11.17
2023-12-11T05:11:43.221Z,10.17
2023-12-11T05:12:15.103Z,23.07
2023-12-11T05:12:46.997Z,24.70
2023-12-11T05:13:18.952Z,14.20
2023-12-11T05:13:50.874Z,14.87
2023-12-11T05:14:22.826Z,20.07
2023-12-11T05:14:54.774Z,20.47
2023-12-11T05:15:26.684Z,17.00
2023-12-11T05:15:58.637Z,15.40
2023-12-11T05:16:30.600Z,19.17
2023-12-11T05:17:02.650Z,25.27
2023-12-11T05:17:34.746Z,24.93
2023-12-11T05:18:06.939Z,28.07
2023-12-11T05:18:40.406Z,22.87
2023-12-11T05:19:12.662Z,19.00
2023-12-11T05:19:44.932Z,18.07
2023-12-11T05:20:19.562Z,18.37
2023-12-11T05:20:51.624Z,16.80
2023-12-11T05:21:23.587Z,15.07
2023-12-11T05:21:57.185Z,15.73
2023-12-11T05:22:29.153Z,16.20
2023-12-11T05:23:01.112Z,18.63
2023-12-11T05:23:33.076Z,18.27
2023-12-11T05:24:05.344Z,15.43
2023-12-11T05:24:37.285Z,13.50
2023-12-11T05:25:09.560Z,13.63
2023-12-11T05:25:41.521Z,16.73
2023-12-11T05:26:19.793Z,16.87
2023-12-11T05:26:52.108Z,14.97
2023-12-11T05:27:24.104Z,16.90
2023-12-11T05:27:56.114Z,16.57
2023-12-11T05:28:28.248Z,14.90
2023-12-11T05:29:01.629Z,14.53
2023-12-11T05:29:33.701Z,13.53
2023-12-11T05:30:07.118Z,14.67
2023-12-11T05:30:39.088Z,14.30
2023-12-11T05:31:11.118Z,14.23
2023-12-11T05:31:43.510Z,15.13
2023-12-11T05:32:16.073Z,15.80
2023-12-11T05:32:48.080Z,15.60
2023-12-11T05:33:20.087Z,15.53
2023-12-11T05:33:52.268Z,16.03
2023-12-11T05:34:24.414Z,14.63
2023-12-11T05:34:56.376Z,14.73
2023-12-11T05:35:28.328Z,14.43
2023-12-11T05:36:00.370Z,14.40
2023-12-11T05:36:34.708Z,13.73
2023-12-11T05:37:06.885Z,13.07
2023-12-11T05:37:38.872Z,13.57
2023-12-11T05:38:10.883Z,13.57
2023-12-11T05:38:42.832Z,13.83
2023-12-11T05:39:14.740Z,15.00
2023-12-11T05:39:57.243Z,17.30
2023-12-11T05:40:39.222Z,14.83
2023-12-11T05:41:11.217Z,15.43
2023-12-11T05:41:43.180Z,23.20
2023-12-11T05:42:15.106Z,21.80
2023-12-11T05:42:47.094Z,50.47
2023-12-11T05:43:20.242Z,60.13
2023-12-11T05:43:52.260Z,55.50
2023-12-11T05:44:24.283Z,44.73
2023-12-11T05:44:56.176Z,37.53
2023-12-11T05:45:28.226Z,36.93
2023-12-11T05:46:00.272Z,35.53
2023-12-11T05:46:32.322Z,27.70
2023-12-11T05:47:04.327Z,23.77
2023-12-11T05:47:37.163Z,25.07
2023-12-11T05:48:09.311Z,20.13
2023-12-11T05:48:41.368Z,24.70
2023-12-11T05:49:13.699Z,28.87
2023-12-11T05:49:45.853Z,31.33
2023-12-11T05:50:19.511Z,29.53
2023-12-11T05:50:51.468Z,26.10
2023-12-11T05:51:24.384Z,21.63
2023-12-11T05:51:57.770Z,20.37
2023-12-11T05:52:29.736Z,20.27
2023-12-11T05:53:01.695Z,17.37
2023-12-11T05:53:33.644Z,16.03
2023-12-11T05:54:05.865Z,15.57
2023-12-11T05:54:37.884Z,15.50
2023-12-11T05:55:10.269Z,14.40
2023-12-11T05:55:42.406Z,13.80
2023-12-11T05:56:14.349Z,14.60
2023-12-11T05:56:47.164Z,15.40
2023-12-11T05:57:19.106Z,15.07
2023-12-11T05:57:51.071Z,12.97
2023-12-11T05:58:23.008Z,13.00
2023-12-11T05:58:55.842Z,13.60
2023-12-11T05:59:27.856Z,13.10
2023-12-11T05:59:59.860Z,12.30
2023-12-11T06:00:31.909Z,14.30
2023-12-11T06:01:06.778Z,14.97
2023-12-11T06:01:38.917Z,15.37
2023-12-11T06:02:10.995Z,15.00
2023-12-11T06:02:43.321Z,11.83
2023-12-11T06:03:15.297Z,11.07
2023-12-11T06:03:47.438Z,11.10
2023-12-11T06:04:19.422Z,11.20
2023-12-11T06:04:51.379Z,13.53
2023-12-11T06:05:23.481Z,12.40
2023-12-11T06:05:59.446Z,12.83
2023-12-11T06:06:32.082Z,13.17
2023-12-11T06:07:04.232Z,12.70
2023-12-11T06:07:37.306Z,12.53
2023-12-11T06:08:09.283Z,11.30
2023-12-11T06:08:41.234Z,12.47
2023-12-11T06:09:14.938Z,14.20
2023-12-11T06:09:46.908Z,14.27
2023-12-11T06:10:18.954Z,14.63
2023-12-11T06:10:50.932Z,12.33
2023-12-11T06:11:22.872Z,10.23
2023-12-11T06:11:54.792Z,17.10
2023-12-11T06:12:26.878Z,17.37
2023-12-11T06:12:58.829Z,18.70
2023-12-11T06:13:30.715Z,19.00
2023-12-11T06:14:02.649Z,16.20
2023-12-11T06:14:34.666Z,18.80
2023-12-11T06:15:07.109Z,14.93
2023-12-11T06:15:39.114Z,13.37
2023-12-11T06:16:12.223Z,13.43
2023-12-11T06:16:44.314Z,15.43
2023-12-11T06:17:16.381Z,23.33
2023-12-11T06:17:49.172Z,24.03
2023-12-11T06:18:21.228Z,24.10
2023-12-11T06:18:53.327Z,26.17
2023-12-11T06:19:25.467Z,22.40
2023-12-11T06:19:57.514Z,18.87
2023-12-11T06:20:29.495Z,18.57
2023-12-11T06:21:03.396Z,18.73
2023-12-11T06:21:35.625Z,18.80
2023-12-11T06:22:07.684Z,18.20
2023-12-11T06:22:39.714Z,18.40
2023-12-11T06:23:11.664Z,16.27
2023-12-11T06:23:43.586Z,14.50
2023-12-11T06:24:15.562Z,14.73
2023-12-11T06:24:47.556Z,17.13
2023-12-11T06:25:19.766Z,16.57
2023-12-11T06:25:52.741Z,15.57
2023-12-11T06:26:35.667Z,16.30
2023-12-11T06:27:08.529Z,15.87
2023-12-11T06:27:40.490Z,15.60
2023-12-11T06:28:12.588Z,15.43
2023-12-11T06:28:44.525Z,14.97
2023-12-11T06:29:16.563Z,15.83
2023-12-11T06:29:48.462Z,15.37
2023-12-11T06:30:20.493Z,15.30
2023-12-11T06:30:52.590Z,14.70
2023-12-11T06:31:25.917Z,15.43
2023-12-11T06:31:57.861Z,16.53
2023-12-11T06:32:29.962Z,16.93
2023-12-11T06:33:01.970Z,16.77
2023-12-11T06:33:34.019Z,17.07
2023-12-11T06:34:06.741Z,16.80
2023-12-11T06:34:39.382Z,16.30
2023-12-11T06:35:11.668Z,16.60
2023-12-11T06:35:43.705Z,16.60
2023-12-11T06:36:15.620Z,16.17
2023-12-11T06:36:50.469Z,16.23
2023-12-11T06:37:22.611Z,15.60
2023-12-11T06:37:54.919Z,15.03
2023-12-11T06:38:26.890Z,16.73
2023-12-11T06:38:58.985Z,17.20
2023-12-11T06:39:31.454Z,17.80
2023-12-11T06:40:04.839Z,18.77
2023-12-11T06:40:36.836Z,20.00
2023-12-11T06:41:09.251Z,20.67
2023-12-11T06:41:41.154Z,19.97
2023-12-11T06:42:13.077Z,20.97
2023-12-11T06:42:45.066Z,22.70
2023-12-11T06:43:17.039Z,22.37
2023-12-11T06:43:53.607Z,23.43
2023-12-11T06:44:25.652Z,24.70
2023-12-11T06:44:57.577Z,23.70
2023-12-11T06:45:33.041Z,21.43
2023-12-11T06:46:07.043Z,20.20
2023-12-11T06:46:38.968Z,19.63
2023-12-11T06:47:11.029Z,19.57
2023-12-11T06:47:43.135Z,20.23
2023-12-11T06:48:15.470Z,20.60
2023-12-11T06:48:47.680Z,20.13
2023-12-11T06:49:20.021Z,19.03
2023-12-11T06:49:52.208Z,18.57
2023-12-11T06:50:24.312Z,18.47
2023-12-11T06:50:56.349Z,17.30
2023-12-11T06:51:28.993Z,18.70
2023-12-11T06:52:00.956Z,19.87
2023-12-11T06:52:32.906Z,20.73
2023-12-11T06:53:05.759Z,19.20
2023-12-11T06:53:38.082Z,16.67
2023-12-11T06:54:12.113Z,17.07
2023-12-11T06:54:44.274Z,18.60
2023-12-11T06:55:16.428Z,17.53
2023-12-11T06:55:48.460Z,15.27
2023-12-11T06:56:20.595Z,13.73
2023-12-11T06:56:52.558Z,13.17
2023-12-11T06:57:24.813Z,14.17
2023-12-11T06:57:57.352Z,16.20
2023-12-11T06:58:29.341Z,16.40
2023-12-11T06:59:02.104Z,15.10